createdAt,value
2019-03-18T00:00:56.984Z,100013.95
2019-03-18T00:03:28.821Z,100023.94
2019-03-18T00:06:00.752Z,100026.15
2019-03-18T00:08:32.505Z,100030.91
2019-03-18T00:11:04.205Z,100030.41
2019-03-18T00:13:35.862Z,100040.03
2019-03-18T00:16:07.455Z,100045.34
2019-03-18T00:18:39.215Z,100037.59
2019-03-18T00:21:10.898Z,100022.60
2019-03-18T00:23:42.509Z,100029.07
2019-03-18T00:26:14.271Z,100048.30
2019-03-18T00:28:45.982Z,100048.55
2019-03-18T00:31:17.596Z,100047.62
2019-03-18T00:33:49.205Z,100044.85
2019-03-18T00:36:20.819Z,100054.31
2019-03-18T00:38:52.588Z,100052.75
2019-03-18T00:41:24.198Z,100053.03
2019-03-18T00:43:55.800Z,100056.55
2019-03-18T00:46:27.587Z,100065.29
2019-03-18T00:49:00.154Z,100062.09
2019-03-18T00:51:31.966Z,100066.53
2019-03-18T00:54:03.634Z,100066.28
2019-03-18T00:56:35.392Z,100068.30
2019-03-18T00:59:06.940Z,100074.14
2019-03-18T01:01:38.614Z,100072.22
2019-03-18T01:04:10.204Z,100073.84
2019-03-18T01:06:41.884Z,100062.17
2019-03-18T01:09:13.538Z,100070.91
2019-03-18T01:11:45.160Z,100088.31
2019-03-18T01:14:16.827Z,100081.59
2019-03-18T01:16:48.542Z,100080.84
2019-03-18T01:19:20.205Z,100080.02
2019-03-18T01:21:51.899Z,100086.48
2019-03-18T01:24:23.497Z,100079.12
2019-03-18T01:26:55.207Z,100069.94
2019-03-18T01:29:26.975Z,100070.40
2019-03-18T01:31:58.829Z,100074.95
2019-03-18T01:34:30.734Z,100072.48
2019-03-18T01:37:03.007Z,100079.12
2019-03-18T01:39:34.607Z,100075.88
2019-03-18T01:42:06.202Z,100076.45
2019-03-18T01:44:37.788Z,100079.00
2019-03-18T01:47:09.459Z,100084.14
2019-03-18T01:49:41.064Z,100088.16
2019-03-18T01:52:12.704Z,100078.17
2019-03-18T01:54:44.304Z,100081.19
2019-03-18T01:57:16.000Z,100073.83
2019-03-18T01:59:48.594Z,100080.72
2019-03-18T02:02:20.182Z,100081.68
2019-03-18T02:04:51.765Z,100085.57
2019-03-18T02:07:23.443Z,100089.58
2019-03-18T02:09:55.027Z,100088.16
2019-03-18T02:12:27.011Z,100084.61
2019-03-18T02:14:58.829Z,100089.36
2019-03-18T02:17:30.750Z,100095.38
2019-03-18T02:20:02.366Z,100097.76
2019-03-18T02:22:34.047Z,100103.69
2019-03-18T02:25:06.099Z,100104.85
2019-03-18T02:27:37.852Z,100103.14
2019-03-18T02:30:09.713Z,100108.48
2019-03-18T02:32:41.403Z,100114.58
2019-03-18T02:35:13.066Z,100118.22
2019-03-18T02:37:44.753Z,100116.13
2019-03-18T02:40:16.317Z,100115.55
2019-03-18T02:42:47.995Z,100109.78
2019-03-18T02:45:19.774Z,100105.40
2019-03-18T02:47:51.544Z,100105.72
2019-03-18T02:50:23.237Z,100113.83
2019-03-18T02:52:54.841Z,100119.55
2019-03-18T02:55:26.437Z,100116.41
2019-03-18T02:57:58.048Z,100114.38
2019-03-18T03:00:29.815Z,100112.58
2019-03-18T03:03:01.694Z,100116.80
2019-03-18T03:05:33.626Z,100116.88
2019-03-18T03:08:05.225Z,100121.64
2019-03-18T03:10:36.882Z,100128.33
2019-03-18T03:13:08.568Z,100121.64
2019-03-18T03:15:40.167Z,100114.95
2019-03-18T03:18:11.787Z,100124.23
2019-03-18T03:20:43.445Z,100129.75
2019-03-18T03:23:15.056Z,100132.80
2019-03-18T03:25:46.723Z,100148.55
2019-03-18T03:28:18.404Z,100147.99
2019-03-18T03:30:49.999Z,100153.89
2019-03-18T03:33:21.696Z,100165.08
2019-03-18T03:35:53.448Z,100166.13
2019-03-18T03:38:26.014Z,100167.66
2019-03-18T03:40:57.921Z,100168.48
2019-03-18T03:43:29.503Z,100171.41
2019-03-18T03:46:01.087Z,100183.23
2019-03-18T03:48:32.788Z,100174.46
2019-03-18T03:51:04.411Z,100166.06
2019-03-18T03:53:36.026Z,100173.91
2019-03-18T03:56:07.633Z,100171.55
2019-03-18T03:58:39.231Z,100174.25
2019-03-18T04:01:10.817Z,100185.43
2019-03-18T04:03:42.405Z,100189.44
2019-03-18T04:06:14.004Z,100192.77
2019-03-18T04:08:45.594Z,100198.30
2019-03-18T04:11:17.184Z,100196.00
2019-03-18T04:13:48.781Z,100203.64
2019-03-18T04:16:20.547Z,100204.53
2019-03-18T04:18:52.213Z,100200.72
2019-03-18T04:21:23.798Z,100203.20
2019-03-18T04:23:55.464Z,100206.27
2019-03-18T04:26:27.058Z,100204.09
2019-03-18T04:28:58.875Z,100205.43
2019-03-18T04:31:30.771Z,100206.84
2019-03-18T04:34:02.426Z,100214.75
2019-03-18T04:36:34.034Z,100225.06
2019-03-18T04:39:07.566Z,100229.09
2019-03-18T04:41:39.322Z,100233.64
2019-03-18T04:44:10.892Z,100235.09
2019-03-18T04:46:42.553Z,100235.47
2019-03-18T04:49:14.153Z,100234.79
2019-03-18T04:51:45.748Z,100241.77
2019-03-18T04:54:17.355Z,100242.80
2019-03-18T04:56:48.942Z,100238.42
2019-03-18T04:59:20.524Z,100229.64
2019-03-18T05:01:52.112Z,100236.23
2019-03-18T05:04:23.789Z,100226.89
2019-03-18T05:06:55.378Z,100231.17
2019-03-18T05:09:26.998Z,100231.36
2019-03-18T05:11:58.773Z,100241.00
2019-03-18T05:14:30.616Z,100234.63
2019-03-18T05:17:02.212Z,100229.38
2019-03-18T05:19:33.815Z,100233.76
2019-03-18T05:22:05.428Z,100233.45
2019-03-18T05:24:37.100Z,100237.88
2019-03-18T05:27:08.710Z,100235.28
2019-03-18T05:29:40.307Z,100233.65
2019-03-18T05:32:11.915Z,100241.47
2019-03-18T05:34:43.458Z,100240.63
2019-03-18T05:37:15.006Z,100254.44
2019-03-18T05:39:46.484Z,100258.45
2019-03-18T05:42:18.002Z,100261.23
2019-03-18T05:44:49.468Z,100261.11
2019-03-18T05:47:21.022Z,100265.31
2019-03-18T05:49:53.902Z,100265.13
2019-03-18T05:52:25.723Z,100272.59
2019-03-18T05:54:57.228Z,100276.84
2019-03-18T05:57:28.763Z,100277.17
2019-03-18T06:00:00.388Z,100279.46
2019-03-18T06:02:32.082Z,100284.58
2019-03-18T06:05:03.564Z,100283.63
2019-03-18T06:07:35.109Z,100285.64
2019-03-18T06:10:07.799Z,100296.59
2019-03-18T06:12:39.354Z,100295.27
2019-03-18T06:15:10.845Z,100303.96
2019-03-18T06:17:51.734Z,100303.64
2019-03-18T06:20:15.576Z,100310.59
2019-03-18T06:22:47.385Z,100306.50
2019-03-18T06:25:18.873Z,100316.23
2019-03-18T06:27:50.396Z,100308.56
2019-03-18T06:30:21.944Z,100312.87
2019-03-18T06:32:53.841Z,100311.80
2019-03-18T06:35:25.387Z,100308.74
2019-03-18T06:37:57.128Z,100307.41
2019-03-18T06:40:28.888Z,100308.55
2019-03-18T06:43:00.784Z,100311.80
2019-03-18T06:45:32.474Z,100315.98
2019-03-18T06:48:05.520Z,100318.47
2019-03-18T06:50:37.245Z,100317.06
2019-03-18T06:53:08.832Z,100320.27
2019-03-18T06:55:40.448Z,100318.48
2019-03-18T06:58:12.116Z,100315.22
2019-03-18T07:00:43.709Z,100319.98
2019-03-18T07:03:15.299Z,100319.89
2019-03-18T07:05:46.956Z,100325.34
2019-03-18T07:08:18.541Z,100336.02
2019-03-18T07:10:53.168Z,100346.84
2019-03-18T07:13:24.860Z,100352.37
2019-03-18T07:15:56.450Z,100352.69
2019-03-18T07:18:28.107Z,100343.91
2019-03-18T07:20:59.972Z,100339.25
2019-03-18T07:23:31.841Z,100353.20
2019-03-18T07:26:03.754Z,100351.81
2019-03-18T07:28:35.328Z,100350.30
2019-03-18T07:31:06.921Z,100351.30
2019-03-18T07:33:38.669Z,100346.38
2019-03-18T07:36:10.307Z,100354.23
2019-03-18T07:38:41.901Z,100352.27
2019-03-18T07:41:13.489Z,100358.62
2019-03-18T07:43:45.084Z,100354.09
2019-03-18T07:46:16.678Z,100381.36
2019-03-18T07:48:48.305Z,100379.34
2019-03-18T07:51:19.882Z,100390.23
2019-03-18T07:53:51.548Z,100376.40
2019-03-18T07:56:23.219Z,100395.88
2019-03-18T07:58:56.518Z,100391.48
2019-03-18T08:01:30.189Z,100393.03
2019-03-18T08:04:02.530Z,100384.37
2019-03-18T08:06:34.901Z,100373.94
2019-03-18T08:09:09.262Z,100381.80
2019-03-18T08:11:42.751Z,100379.84
2019-03-18T08:14:16.011Z,100389.66
2019-03-18T08:16:49.754Z,100386.60
2019-03-18T08:19:21.727Z,100385.19
2019-03-18T08:21:53.571Z,100397.15
2019-03-18T08:24:26.810Z,100405.33
2019-03-18T08:26:58.696Z,100400.72
2019-03-18T08:29:30.552Z,100406.72
2019-03-18T08:32:03.859Z,100430.45
2019-03-18T08:34:36.634Z,100419.75
2019-03-18T08:37:09.773Z,100409.52
2019-03-18T08:39:43.059Z,100406.64
2019-03-18T08:42:15.115Z,100425.09
2019-03-18T08:44:46.941Z,100413.45
2019-03-18T08:47:18.767Z,100429.31
2019-03-18T08:49:50.677Z,100411.05
2019-03-18T08:52:22.533Z,100407.34
2019-03-18T08:54:54.285Z,100404.71
2019-03-18T08:57:26.290Z,100406.75
2019-03-18T08:59:58.523Z,100417.20
2019-03-18T09:02:31.097Z,100422.56
2019-03-18T09:05:03.351Z,100430.42
2019-03-18T09:07:34.950Z,100429.47
2019-03-18T09:10:07.043Z,100435.58
2019-03-18T09:12:38.959Z,100437.88
2019-03-18T09:15:10.846Z,100442.88
2019-03-18T09:17:44.045Z,100446.83
2019-03-18T09:20:15.843Z,100441.92
2019-03-18T09:22:47.608Z,100444.16
2019-03-18T09:25:20.372Z,100434.34
2019-03-18T09:27:52.143Z,100450.95
2019-03-18T09:30:23.800Z,100447.14
2019-03-18T09:32:55.403Z,100466.91
2019-03-18T09:35:26.994Z,100442.36
2019-03-18T09:37:58.673Z,100444.60
2019-03-18T09:40:30.530Z,100445.12
2019-03-18T09:43:02.443Z,100450.77
2019-03-18T09:45:34.226Z,100446.31
2019-03-18T09:48:06.020Z,100469.51
2019-03-18T09:50:37.619Z,100463.39
2019-03-18T09:53:09.217Z,100455.36
2019-03-18T09:55:40.921Z,100460.58
2019-03-18T09:58:12.910Z,100468.11
2019-03-18T10:00:50.315Z,100472.20
2019-03-18T10:03:23.038Z,100474.11
2019-03-18T10:05:56.277Z,100469.02
2019-03-18T10:08:29.728Z,100463.55
2019-03-18T10:11:01.622Z,100476.44
2019-03-18T10:13:33.734Z,100475.31
2019-03-18T10:16:05.914Z,100487.39
2019-03-18T10:18:38.216Z,100471.86
2019-03-18T10:21:10.221Z,100477.95
2019-03-18T10:23:42.371Z,100487.14
2019-03-18T10:26:15.932Z,100482.06
2019-03-18T10:28:49.232Z,100497.84
2019-03-18T10:31:21.394Z,100503.41
2019-03-18T10:33:53.192Z,100510.19
2019-03-18T10:36:25.395Z,100517.66
2019-03-18T10:38:57.822Z,100518.36
2019-03-18T10:41:29.990Z,100519.22
2019-03-18T10:44:02.508Z,100516.91
2019-03-18T10:46:35.449Z,100516.83
2019-03-18T10:49:07.215Z,100509.33
2019-03-18T10:51:38.809Z,100510.25
2019-03-18T10:54:10.823Z,100529.45
2019-03-18T10:56:42.500Z,100525.61
2019-03-18T10:59:14.197Z,100521.11
2019-03-18T11:01:45.878Z,100508.67
2019-03-18T11:04:17.475Z,100507.73
2019-03-18T11:06:49.066Z,100511.35
2019-03-18T11:09:20.677Z,100523.03
2019-03-18T11:11:52.359Z,100522.25
2019-03-18T11:14:24.032Z,100522.19
2019-03-18T11:16:55.639Z,100526.66
2019-03-18T11:19:28.315Z,100514.77
2019-03-18T11:22:00.010Z,100517.50
2019-03-18T11:24:31.614Z,100511.83
2019-03-18T11:27:03.295Z,100516.48
2019-03-18T11:29:34.879Z,100511.55
2019-03-18T11:32:06.479Z,100511.80
2019-03-18T11:34:38.165Z,100508.55
2019-03-18T11:37:10.808Z,100506.38
2019-03-18T11:39:42.564Z,100509.15
2019-03-18T11:42:14.159Z,100516.08
2019-03-18T11:44:45.831Z,100522.88
2019-03-18T11:47:17.505Z,100534.50
2019-03-18T11:49:49.280Z,100510.40
2019-03-18T11:52:20.875Z,100524.06
2019-03-18T11:54:52.472Z,100517.42
2019-03-18T11:57:24.138Z,100524.95
2019-03-18T11:59:55.724Z,100529.22
2019-03-18T12:02:28.214Z,100527.66
2019-03-18T12:04:59.830Z,100540.27
2019-03-18T12:07:31.412Z,100521.21
2019-03-18T12:10:03.024Z,100535.30
2019-03-18T12:12:34.678Z,100537.80
2019-03-18T12:15:06.485Z,100536.75
2019-03-18T12:17:38.136Z,100532.34
2019-03-18T12:20:23.209Z,100538.22
2019-03-18T12:22:43.887Z,100544.84
2019-03-18T12:25:15.914Z,100528.34
2019-03-18T12:27:48.952Z,100540.53
2019-03-18T12:30:20.582Z,100521.20
2019-03-18T12:32:52.235Z,100536.16
2019-03-18T12:35:23.824Z,100535.53
2019-03-18T12:37:55.483Z,100545.98
2019-03-18T12:40:27.180Z,100536.20
2019-03-18T12:42:58.842Z,100528.33
2019-03-18T12:45:30.606Z,100529.83
2019-03-18T12:48:02.381Z,100542.28
2019-03-18T12:50:54.589Z,100525.47
2019-03-18T12:53:07.613Z,100543.94
2019-03-18T12:55:39.283Z,100539.81
2019-03-18T12:58:10.953Z,100536.30
2019-03-18T13:00:42.622Z,100527.28
2019-03-18T13:03:14.295Z,100531.65
2019-03-18T13:05:45.957Z,100536.18
2019-03-18T13:08:17.636Z,100529.94
2019-03-18T13:10:50.300Z,100540.95
2019-03-18T13:13:21.890Z,100537.77
2019-03-18T13:15:53.561Z,100545.48
2019-03-18T13:18:25.159Z,100559.45
2019-03-18T13:21:07.411Z,100542.36
2019-03-18T13:23:30.140Z,100551.44
2019-03-18T13:26:01.749Z,100544.42
2019-03-18T13:28:33.344Z,100545.34
2019-03-18T13:31:04.939Z,100546.98
2019-03-18T13:33:36.602Z,100553.56
2019-03-18T13:36:08.210Z,100569.58
2019-03-18T13:38:39.787Z,100554.36
2019-03-18T13:41:11.490Z,100554.23
2019-03-18T13:43:43.083Z,100558.76
2019-03-18T13:46:14.691Z,100552.52
2019-03-18T13:48:46.561Z,100557.52
2019-03-18T13:51:21.367Z,100570.50
2019-03-18T13:53:53.704Z,100556.34
2019-03-18T13:56:25.916Z,100557.84
2019-03-18T13:58:58.410Z,100562.37
2019-03-18T14:01:31.043Z,100553.83
2019-03-18T14:04:02.651Z,100581.60
2019-03-18T14:06:35.267Z,100563.42
2019-03-18T14:09:08.830Z,100571.97
2019-03-18T14:11:40.616Z,100567.61
2019-03-18T14:14:12.218Z,100574.44
2019-03-18T14:16:43.885Z,100570.03
2019-03-18T14:19:15.493Z,100584.92
2019-03-18T14:21:47.528Z,100574.27
2019-03-18T14:24:19.989Z,100585.16
2019-03-18T14:26:51.994Z,100575.70
2019-03-18T14:29:23.738Z,100581.34
2019-03-18T14:32:13.945Z,100571.82
2019-03-18T14:34:47.861Z,100578.83
2019-03-18T14:37:41.398Z,100574.21
2019-03-18T14:40:17.364Z,100565.84
2019-03-18T14:43:17.671Z,100579.34
2019-03-18T14:45:52.592Z,100562.92
2019-03-18T14:48:35.944Z,100573.14
2019-03-18T14:51:14.636Z,100563.44
2019-03-18T14:53:51.227Z,100566.93
2019-03-18T14:56:23.618Z,100569.86
2019-03-18T14:58:56.383Z,100565.33
2019-03-18T15:01:28.430Z,100581.83
2019-03-18T15:04:01.321Z,100570.42
2019-03-18T15:06:32.996Z,100567.24
2019-03-18T15:09:06.989Z,100573.67
2019-03-18T15:11:39.675Z,100566.25
2019-03-18T15:14:12.835Z,100563.14
2019-03-18T15:16:47.341Z,100559.41
2019-03-18T15:19:19.725Z,100558.47
2019-03-18T15:21:58.307Z,100555.61
2019-03-18T15:24:25.650Z,100567.75
2019-03-18T15:26:57.986Z,100567.00
2019-03-18T15:29:30.597Z,100571.05
2019-03-18T15:32:02.578Z,100568.95
2019-03-18T15:34:34.442Z,100572.67
2019-03-18T15:37:06.483Z,100573.70
2019-03-18T15:39:39.375Z,100587.02
2019-03-18T15:42:11.398Z,100573.19
2019-03-18T15:44:43.202Z,100582.50
2019-03-18T15:47:15.001Z,100582.02
2019-03-18T15:49:46.935Z,100579.66
2019-03-18T15:52:18.708Z,100571.08
2019-03-18T15:54:54.093Z,100578.38
2019-03-18T15:57:29.416Z,100576.34
2019-03-18T15:59:57.562Z,100581.38
2019-03-18T16:02:30.022Z,100576.20
2019-03-18T16:05:02.119Z,100582.64
2019-03-18T16:07:33.806Z,100595.02
2019-03-18T16:10:05.660Z,100582.46
2019-03-18T16:12:37.499Z,100603.11
2019-03-18T16:15:09.783Z,100604.20
2019-03-18T16:17:42.016Z,100612.95
2019-03-18T16:20:14.544Z,100612.42
2019-03-18T16:22:46.365Z,100609.66
2019-03-18T16:25:18.000Z,100615.37
2019-03-18T16:27:49.920Z,100615.55
2019-03-18T16:30:21.929Z,100621.85
2019-03-18T16:32:54.655Z,100621.69
2019-03-18T16:35:26.480Z,100630.94
2019-03-18T16:37:58.504Z,100631.79
2019-03-18T16:40:30.593Z,100620.86
2019-03-18T16:43:02.605Z,100620.80
2019-03-18T16:45:34.797Z,100628.88
2019-03-18T16:48:06.571Z,100628.77
2019-03-18T16:50:38.433Z,100636.20
2019-03-18T16:53:10.053Z,100645.94
2019-03-18T16:55:41.988Z,100656.36
2019-03-18T16:58:13.905Z,100657.24
2019-03-18T17:00:45.743Z,100659.12
2019-03-18T17:03:17.481Z,100659.22
2019-03-18T17:05:49.095Z,100664.84
2019-03-18T17:08:20.795Z,100668.56
2019-03-18T17:10:52.454Z,100661.39
2019-03-18T17:13:24.259Z,100671.03
2019-03-18T17:15:56.256Z,100666.47
2019-03-18T17:18:33.240Z,100674.30
2019-03-18T17:21:07.347Z,100680.73
2019-03-18T17:23:39.279Z,100676.95
2019-03-18T17:26:11.232Z,100690.97
2019-03-18T17:28:43.132Z,100688.83
2019-03-18T17:31:14.930Z,100696.23
2019-03-18T17:33:46.789Z,100705.13
2019-03-18T17:36:23.432Z,100708.81
2019-03-18T17:38:59.341Z,100713.22
2019-03-18T17:41:33.487Z,100729.01
2019-03-18T17:44:05.629Z,100726.75
2019-03-18T17:46:38.716Z,100728.86
2019-03-18T17:49:12.137Z,100723.23
2019-03-18T17:51:48.350Z,100735.29
2019-03-18T17:54:27.701Z,100747.15
2019-03-18T17:57:07.562Z,100736.24
2019-03-18T17:59:40.310Z,100745.42
2019-03-18T18:02:12.183Z,100745.51
2019-03-18T18:04:44.890Z,100741.52
2019-03-18T18:07:16.492Z,100746.30
2019-03-18T18:09:48.267Z,100750.97
2019-03-18T18:12:19.871Z,100753.84
2019-03-18T18:14:51.589Z,100756.32
2019-03-18T18:17:23.269Z,100754.70
2019-03-18T18:19:54.872Z,100751.84
2019-03-18T18:22:26.485Z,100749.92
2019-03-18T18:24:58.504Z,100763.20
2019-03-18T18:27:30.493Z,100762.14
2019-03-18T18:30:02.349Z,100758.22
2019-03-18T18:32:34.009Z,100763.69
2019-03-18T18:35:06.617Z,100764.71
2019-03-18T18:37:38.304Z,100768.16
2019-03-18T18:40:11.132Z,100767.38
2019-03-18T18:42:43.806Z,100770.83
2019-03-18T18:45:15.404Z,100768.61
2019-03-18T18:47:47.072Z,100780.84
2019-03-18T18:50:18.737Z,100778.80
2019-03-18T18:52:50.399Z,100783.41
2019-03-18T18:55:22.038Z,100781.59
2019-03-18T18:57:53.739Z,100781.02
2019-03-18T19:00:25.343Z,100781.56
2019-03-18T19:02:57.096Z,100795.33
2019-03-18T19:05:28.959Z,100798.28
2019-03-18T19:08:00.718Z,100794.55
2019-03-18T19:10:32.386Z,100796.03
2019-03-18T19:13:03.992Z,100797.54
2019-03-18T19:15:35.718Z,100805.00
2019-03-18T19:18:07.411Z,100801.27
2019-03-18T19:20:39.074Z,100799.44
2019-03-18T19:23:10.673Z,100797.83
2019-03-18T19:25:42.293Z,100796.94
2019-03-18T19:28:14.483Z,100799.05
2019-03-18T19:30:46.224Z,100802.63
2019-03-18T19:33:18.001Z,100806.08
2019-03-18T19:35:49.659Z,100809.43
2019-03-18T19:38:21.330Z,100814.66
2019-03-18T19:40:52.927Z,100812.45
2019-03-18T19:43:24.525Z,100831.88
2019-03-18T19:45:56.296Z,100830.83
2019-03-18T19:48:27.974Z,100829.27
2019-03-18T19:50:59.572Z,100840.34
2019-03-18T19:53:31.528Z,100853.54
2019-03-18T19:56:03.224Z,100855.67
2019-03-18T19:58:34.814Z,100864.81
2019-03-18T20:01:06.701Z,100858.78
2019-03-18T20:03:38.382Z,100864.91
2019-03-18T20:06:09.981Z,100870.03
2019-03-18T20:08:41.660Z,100868.73
2019-03-18T20:11:13.268Z,100876.44
2019-03-18T20:13:45.946Z,100881.06
2019-03-18T20:16:17.521Z,100874.70
2019-03-18T20:18:50.215Z,100884.39
2019-03-18T20:21:21.974Z,100886.34
2019-03-18T20:24:00.797Z,100901.05
2019-03-18T20:26:27.020Z,100905.94
2019-03-18T20:28:58.698Z,100902.02
2019-03-18T20:31:30.464Z,100904.11
2019-03-18T20:34:02.418Z,100905.67
2019-03-18T20:36:34.035Z,100909.52
2019-03-18T20:39:07.810Z,100914.86
2019-03-18T20:41:39.958Z,100908.67
2019-03-18T20:44:11.620Z,100913.62
2019-03-18T20:46:43.268Z,100916.08
2019-03-18T20:49:17.072Z,100919.00
2019-03-18T20:51:48.526Z,100914.51
2019-03-18T20:54:20.188Z,100915.45
2019-03-18T20:56:52.292Z,100924.09
2019-03-18T20:59:23.954Z,100923.08
2019-03-18T21:01:55.627Z,100934.48
2019-03-18T21:04:27.404Z,100935.75
2019-03-18T21:06:59.854Z,100945.50
2019-03-18T21:09:31.598Z,100940.70
2019-03-18T21:12:03.272Z,100934.72
2019-03-18T21:14:35.163Z,100942.89
2019-03-18T21:17:06.840Z,100938.49
2019-03-18T21:19:38.506Z,100944.55
2019-03-18T21:22:10.076Z,100953.47
2019-03-18T21:24:41.741Z,100952.65
2019-03-18T21:27:13.332Z,100958.70
2019-03-18T21:29:45.009Z,100961.44
2019-03-18T21:32:16.696Z,100963.73
2019-03-18T21:34:48.294Z,100969.71
2019-03-18T21:37:19.960Z,100966.02
2019-03-18T21:39:51.639Z,100954.00
2019-03-18T21:42:23.303Z,100956.91
2019-03-18T21:44:54.975Z,100960.28
2019-03-18T21:47:26.582Z,100965.78
2019-03-18T21:49:58.615Z,100961.69
2019-03-18T21:52:30.477Z,100961.98
2019-03-18T21:55:02.439Z,100963.27
2019-03-18T21:57:34.093Z,100972.45
2019-03-18T22:00:06.000Z,100977.45
2019-03-18T22:02:37.666Z,100981.00
2019-03-18T22:05:09.271Z,100984.36
2019-03-18T22:07:40.943Z,100991.28
2019-03-18T22:10:13.072Z,100986.64
2019-03-18T22:12:44.672Z,100989.22
2019-03-18T22:15:16.286Z,100989.45
2019-03-18T22:17:48.048Z,100996.42
2019-03-18T22:20:19.734Z,100990.29
2019-03-18T22:22:51.325Z,100992.66
2019-03-18T22:25:22.932Z,100989.64
2019-03-18T22:27:54.533Z,100994.67
2019-03-18T22:30:26.114Z,101000.84
2019-03-18T22:32:57.781Z,101009.92
2019-03-18T22:35:29.474Z,101011.18
2019-03-18T22:38:01.352Z,101011.89
2019-03-18T22:40:33.254Z,101019.89
2019-03-18T22:43:04.848Z,101020.69
2019-03-18T22:45:36.444Z,101025.88
2019-03-18T22:48:08.049Z,101020.48
2019-03-18T22:50:39.637Z,101017.05
2019-03-18T22:53:11.246Z,101024.53
2019-03-18T22:55:42.978Z,101030.27
2019-03-18T22:58:14.563Z,101033.19
2019-03-18T23:00:47.763Z,101040.87
2019-03-18T23:03:19.533Z,101033.34
2019-03-18T23:05:51.197Z,101034.28
2019-03-18T23:08:22.855Z,101031.11
2019-03-18T23:10:54.484Z,101035.77
2019-03-18T23:13:26.160Z,101033.92
2019-03-18T23:15:57.822Z,101033.05
2019-03-18T23:18:29.486Z,101030.05
2019-03-18T23:21:01.410Z,101032.55
2019-03-18T23:23:33.298Z,101039.90
2019-03-18T23:26:05.221Z,101058.17
2019-03-18T23:28:36.896Z,101062.84
2019-03-18T23:31:08.553Z,101066.59
2019-03-18T23:33:40.208Z,101073.08
2019-03-18T23:36:11.869Z,101069.08
2019-03-18T23:38:43.444Z,101075.17
2019-03-18T23:41:15.120Z,101072.83
2019-03-18T23:43:46.817Z,101078.56
2019-03-18T23:46:18.413Z,101080.65
2019-03-18T23:48:50.020Z,101077.93
2019-03-18T23:51:21.613Z,101082.91
2019-03-18T23:53:53.214Z,101079.58
2019-03-18T23:56:24.866Z,101087.39
2019-03-18T23:58:56.574Z,101081.08
